Terminal Aerodrome Forecast
Issued by NWS

Home | Current Version | Previous Version | Graphics & Text | Print | Product List | Glossary On
Versions: 1 2 3 4 5 6 7 8 9 10 11 12 13 14 15 16 17 18 19 20 21 22 23 24 25 26 27
904
FTUS43 KABR 011624 AAA
TAFATY
TAF AMD
KATY 011624Z 0116/0212 32008KT P6SM BKN050
      TEMPO 0116/0117 6SM -SN SCT030 BKN040
     FM011700 32012KT P6SM OVC020
     FM011900 31016G24KT P6SM BKN015
     FM012300 31013KT P6SM BKN080
     FM020700 07005KT 2SM -SN OVC015=

USA.gov is the U.S. government's official web portal to all federal, state and local government web resources and services.